Time;durP1;ratioP1;P1;durP2;ratioP2;P2;SDS_P1;SDS_P2;PMS_P1;PMS_P2;Temp;Humidity;BMP_temperature;BMP_pressure;BME280_temperature;BME280_humidity;BME280_pressure;Samples;Min_cycle;Max_cycle;Signal;HPM_P1;HPM_P2
2022/11/22 00:01:29;;;;;;;;;;;;;;;27.31;54.89;96337.13;595255;235;67285;-70
2022/11/22 00:03:57;;;;;;;;;;;;;;;27.32;53.99;96343.30;602100;233;67104;-70
2022/11/22 00:06:24;;;;;;;;;;;;;;;27.31;56.06;96336.31;595245;235;65132;-70
2022/11/22 00:08:52;;;;;;;;;;;;;;;27.30;55.92;96327.43;602067;233;67193;-70
2022/11/22 00:11:19;;;;;;;;;;;;;;;27.30;51.96;96329.34;595273;235;66730;-70
2022/11/22 00:13:47;;;;;;;;;;;;;;;27.29;54.43;96325.08;602056;233;65031;-70
2022/11/22 00:16:14;;;;;;;;;;;;;;;27.28;53.40;96326.97;595236;235;67189;-70
2022/11/22 00:18:42;;;;;;;;;;;;;;;27.28;55.40;96324.27;602083;232;64970;-70
2022/11/22 00:21:09;;;;;;;;;;;;;;;27.27;53.69;96325.39;595235;236;63777;-70
2022/11/22 00:23:37;;;;;;;;;;;;;;;27.25;54.21;96316.83;602050;233;67204;-70
2022/11/22 00:26:05;;;;;;;;;;;;;;;27.26;55.34;96318.44;595198;235;66791;-70
2022/11/22 00:28:33;;;;;;;;;;;;;;;27.25;55.22;96318.75;602070;233;65237;-70
2022/11/22 00:31:00;;;;;;;;;;;;;;;27.25;53.66;96322.23;595278;235;65215;-70
2022/11/22 00:33:28;;;;;;;;;;;;;;;27.23;53.73;96325.27;607221;232;65421;-70
2022/11/22 00:35:55;;;;;;;;;;;;;;;27.23;54.05;96332.58;611766;232;62941;-70
2022/11/22 00:38:23;;;;;;;;;;;;;;;27.22;53.61;96329.06;611764;232;65010;-70
2022/11/22 00:40:50;;;;;;;;;;;;;;;27.22;54.03;96326.38;611787;232;64946;-70
2022/11/22 00:43:18;;;;;;;;;;;;;;;27.21;53.92;96327.50;611782;232;63053;-70
2022/11/22 00:45:45;;;;;;;;;;;;;;;27.21;54.75;96319.41;611838;232;65100;-64
2022/11/22 00:48:13;;;;;;;;;;;;;;;27.19;53.45;96321.63;611771;232;65051;-70
2022/11/22 00:50:41;;;;;;;;;;;;;;;27.19;55.15;96327.03;611778;232;62660;-70
2022/11/22 00:53:08;;;;;;;;;;;;;;;27.18;54.01;96333.55;611772;232;64689;-70
2022/11/22 00:55:36;;;;;;;;;;;;;;;27.17;54.28;96326.59;611761;232;64940;-70
2022/11/22 00:58:03;;;;;;;;;;;;;;;27.17;54.22;96334.68;611815;232;62979;-70
2022/11/22 01:00:31;;;;;;;;;;;;;;;27.15;54.48;96336.88;611782;232;65275;-64
2022/11/22 01:02:58;;;;;;;;;;;;;;;27.14;54.50;96337.98;611796;232;64834;-65
2022/11/22 01:05:26;;;;;;;;;;;;;;;27.15;55.09;96342.27;611812;232;63037;-64
2022/11/22 01:07:53;;;;;;;;;;;;;;;27.14;55.74;96343.37;611819;232;65025;-64
2022/11/22 01:10:21;;;;;;;;;;;;;;;27.14;55.06;96345.28;611868;232;65146;-64
2022/11/22 01:12:48;;;;;;;;;;;;;;;27.13;52.41;96336.41;611860;232;65063;-64
2022/11/22 01:15:16;;;;;;;;;;;;;;;27.14;55.95;96342.59;611833;232;64803;-64
2022/11/22 01:17:43;;;;;;;;;;;;;;;27.12;54.63;96342.11;611825;232;64663;-64
2022/11/22 01:20:11;;;;;;;;;;;;;;;27.11;52.88;96338.63;611825;232;62923;-64
2022/11/22 01:22:39;;;;;;;;;;;;;;;27.11;53.07;96344.03;611802;232;66936;-64
2022/11/22 01:25:07;;;;;;;;;;;;;;;27.10;54.82;96338.98;611903;232;66878;-64
2022/11/22 01:27:34;;;;;;;;;;;;;;;27.09;54.13;96346.28;611856;232;64993;-64
2022/11/22 01:30:02;;;;;;;;;;;;;;;27.10;54.47;96358.64;611826;232;66944;-64
2022/11/22 01:32:30;;;;;;;;;;;;;;;27.09;52.71;96340.89;611440;232;64794;-64
2022/11/22 01:34:57;;;;;;;;;;;;;;;27.08;52.83;96343.90;609228;233;62992;-64
2022/11/22 01:37:25;;;;;;;;;;;;;;;27.08;56.08;96351.99;609282;233;64717;-64
2022/11/22 01:39:52;;;;;;;;;;;;;;;27.07;54.65;96343.12;609238;233;66800;-64
2022/11/22 01:42:20;;;;;;;;;;;;;;;27.06;54.65;96349.61;609214;233;65002;-65
2022/11/22 01:44:48;;;;;;;;;;;;;;;27.06;53.74;96359.61;609207;233;67201;-65
2022/11/22 01:47:17;;;;;;;;;;;;;;;27.04;52.95;96362.66;609187;233;67393;-64
2022/11/22 01:49:55;;;;;;;;;;;;;;;27.03;54.41;96352.96;609221;233;65108;-64
2022/11/22 01:52:23;;;;;;;;;;;;;;;27.03;55.07;96357.56;609240;233;67276;-64
2022/11/22 01:54:53;;;;;;;;;;;;;;;27.02;55.20;96351.39;609195;233;67220;-64
2022/11/22 01:57:22;;;;;;;;;;;;;;;27.01;55.04;96349.83;609078;233;62998;-64
2022/11/22 01:59:51;;;;;;;;;;;;;;;27.00;54.74;96364.41;609183;233;67402;-65
2022/11/22 02:02:19;;;;;;;;;;;;;;;26.99;54.78;96360.92;609150;233;67040;-64
2022/11/22 02:04:48;;;;;;;;;;;;;;;26.99;55.51;96357.44;609279;233;65035;-64
2022/11/22 02:07:20;;;;;;;;;;;;;;;26.98;56.62;96359.35;609223;233;64766;-64
2022/11/22 02:09:49;;;;;;;;;;;;;;;26.96;53.33;96358.09;608786;233;64978;-63
2022/11/22 02:12:18;;;;;;;;;;;;;;;26.97;56.19;96359.66;609199;233;63010;-64
2022/11/22 02:14:46;;;;;;;;;;;;;;;26.96;54.34;96363.48;609226;233;65272;-69
2022/11/22 02:17:14;;;;;;;;;;;;;;;26.95;54.65;96367.28;609253;233;67142;-69
2022/11/22 02:19:43;;;;;;;;;;;;;;;26.95;55.30;96361.89;609219;233;65135;-69
2022/11/22 02:22:12;;;;;;;;;;;;;;;26.93;55.24;96364.92;609175;233;67299;-70
2022/11/22 02:24:41;;;;;;;;;;;;;;;26.93;55.71;96358.75;609060;233;67082;-69
2022/11/22 02:27:08;;;;;;;;;;;;;;;26.92;54.85;96351.76;609203;233;62941;-70
2022/11/22 02:29:36;;;;;;;;;;;;;;;26.92;54.67;96360.63;609260;233;65156;-70
2022/11/22 02:32:03;;;;;;;;;;;;;;;26.91;56.46;96352.88;609251;233;67083;-70
2022/11/22 02:34:32;;;;;;;;;;;;;;;26.90;54.24;96359.38;607331;233;65045;-70
2022/11/22 02:37:00;;;;;;;;;;;;;;;26.90;55.06;96359.38;606922;233;65136;-70
2022/11/22 02:39:29;;;;;;;;;;;;;;;26.89;54.97;96360.50;607300;233;64965;-70
2022/11/22 02:41:56;;;;;;;;;;;;;;;26.88;53.57;96350.84;607282;233;62890;-70
2022/11/22 02:44:24;;;;;;;;;;;;;;;26.87;55.28;96350.03;607355;233;64901;-71
2022/11/22 02:46:53;;;;;;;;;;;;;;;26.86;51.72;96348.45;607276;233;64847;-70
2022/11/22 02:49:22;;;;;;;;;;;;;;;26.86;55.56;96353.85;607294;233;65134;-70
2022/11/22 02:51:50;;;;;;;;;;;;;;;26.86;55.58;96350.37;607253;233;69125;-70
2022/11/22 02:54:19;;;;;;;;;;;;;;;26.85;54.87;96363.06;607318;233;64929;-70
2022/11/22 02:56:46;;;;;;;;;;;;;;;26.83;54.12;96359.89;607330;233;63043;-64
2022/11/22 02:59:14;;;;;;;;;;;;;;;26.83;55.24;96361.80;607286;233;65075;-64
2022/11/22 03:01:42;;;;;;;;;;;;;;;26.83;54.45;96367.20;607270;233;65448;-65
2022/11/22 03:04:23;;;;;;;;;;;;;;;26.79;52.04;96375.94;607255;233;65036;-64
2022/11/22 03:06:39;;;;;;;;;;;;;;;26.82;56.06;96368.30;606767;233;65189;-65
2022/11/22 03:09:07;;;;;;;;;;;;;;;26.79;54.61;96365.16;607353;233;64958;-65
2022/11/22 03:11:34;;;;;;;;;;;;;;;26.80;55.06;96365.94;607323;233;65057;-70
2022/11/22 03:14:02;;;;;;;;;;;;;;;26.78;56.35;96363.55;607297;233;67244;-70
2022/11/22 03:16:30;;;;;;;;;;;;;;;26.77;54.55;96361.20;607238;233;67082;-70
2022/11/22 03:18:58;;;;;;;;;;;;;;;26.76;54.17;96356.91;607317;233;65063;-70
2022/11/22 03:21:25;;;;;;;;;;;;;;;26.75;54.40;96356.13;607311;233;66911;-70
2022/11/22 03:23:54;;;;;;;;;;;;;;;26.75;54.99;96364.20;607316;233;67165;-70
2022/11/22 03:26:21;;;;;;;;;;;;;;;26.74;55.42;96373.42;607269;233;65045;-70
2022/11/22 03:28:49;;;;;;;;;;;;;;;26.74;52.64;96372.63;607150;233;67520;-70
2022/11/22 03:31:16;;;;;;;;;;;;;;;26.74;54.85;96373.42;607237;233;67035;-68
2022/11/22 03:33:44;;;;;;;;;;;;;;;26.74;53.96;96365.33;609978;232;65041;-72
2022/11/22 03:36:11;;;;;;;;;;;;;;;26.73;54.69;96371.03;611725;232;67316;-72
2022/11/22 03:38:39;;;;;;;;;;;;;;;26.71;54.50;96374.07;611141;232;67079;-72
2022/11/22 03:41:06;;;;;;;;;;;;;;;26.69;51.15;96378.20;610881;232;65200;-71
2022/11/22 03:43:34;;;;;;;;;;;;;;;26.68;52.96;96371.21;611680;232;67273;-72
2022/11/22 03:46:01;;;;;;;;;;;;;;;26.67;54.55;96380.42;611700;232;67036;-72
2022/11/22 03:48:29;;;;;;;;;;;;;;;26.65;54.28;96380.73;611723;232;65122;-72
2022/11/22 03:51:04;;;;;;;;;;;;;;;26.64;54.42;96379.16;611685;232;67260;-71
2022/11/22 03:53:32;;;;;;;;;;;;;;;26.64;51.69;96389.16;611398;232;67157;-72
2022/11/22 03:56:01;;;;;;;;;;;;;;;26.61;51.28;96382.50;611646;232;65061;-72
2022/11/22 03:58:28;;;;;;;;;;;;;;;26.61;52.76;96387.11;611707;232;67237;-72
2022/11/22 04:00:56;;;;;;;;;;;;;;;26.59;50.27;96373.95;611697;232;66992;-72
2022/11/22 04:03:24;;;;;;;;;;;;;;;26.59;53.24;96371.25;611742;232;65105;-72
2022/11/22 04:05:51;;;;;;;;;;;;;;;26.56;50.14;96372.69;611690;232;67229;-72
2022/11/22 04:08:19;;;;;;;;;;;;;;;26.55;52.73;96378.41;611714;232;66903;-71
2022/11/22 04:10:47;;;;;;;;;;;;;;;26.54;52.15;96385.68;611665;232;65041;-72
2022/11/22 04:13:15;;;;;;;;;;;;;;;26.51;50.35;96380.16;611687;232;64781;-72
2022/11/22 04:15:43;;;;;;;;;;;;;;;26.53;53.79;96384.11;611721;232;65297;-72
2022/11/22 04:18:13;;;;;;;;;;;;;;;26.52;52.51;96381.75;611668;232;62918;-72
2022/11/22 04:23:26;;;;;;;;;;;;;;;26.48;51.12;96380.77;611687;232;67204;-72
2022/11/22 04:25:55;;;;;;;;;;;;;;;26.48;53.39;96380.77;611701;232;64960;-72
2022/11/22 04:28:23;;;;;;;;;;;;;;;26.46;50.72;96388.37;611726;232;67228;-71
2022/11/22 04:33:36;;;;;;;;;;;;;;;26.45;50.46;96389.50;609072;232;62985;-71
2022/11/22 04:36:04;;;;;;;;;;;;;;;26.42;49.55;96390.94;607316;233;66927;-71
2022/11/22 04:38:32;;;;;;;;;;;;;;;26.43;51.46;96395.20;607294;233;67083;-71
2022/11/22 04:40:59;;;;;;;;;;;;;;;26.42;53.01;96400.92;607278;233;65136;-71
2022/11/22 04:46:14;;;;;;;;;;;;;;;26.40;51.05;96411.22;607309;233;65055;-71
2022/11/22 04:48:42;;;;;;;;;;;;;;;26.40;50.63;96417.39;607306;233;62959;-72
2022/11/22 04:53:56;;;;;;;;;;;;;;;26.38;51.27;96425.00;607303;233;64959;-71
2022/11/22 04:56:24;;;;;;;;;;;;;;;26.36;51.97;96432.63;607276;233;65102;-71
2022/11/22 04:58:51;;;;;;;;;;;;;;;26.35;51.45;96441.80;607351;233;68021;-71
2022/11/22 05:01:18;;;;;;;;;;;;;;;26.34;52.16;96446.41;607378;233;67116;-71
2022/11/22 05:03:46;;;;;;;;;;;;;;;26.35;52.77;96449.89;607288;233;65260;-71
2022/11/22 05:06:14;;;;;;;;;;;;;;;26.34;54.03;96453.70;607292;233;67055;-71
2022/11/22 05:08:41;;;;;;;;;;;;;;;26.32;52.80;96458.61;607317;233;67169;-71
2022/11/22 05:11:09;;;;;;;;;;;;;;;26.31;51.42;96463.21;607257;233;65118;-71
2022/11/22 05:13:37;;;;;;;;;;;;;;;26.31;53.64;96460.52;607365;233;67319;-71
2022/11/22 05:16:06;;;;;;;;;;;;;;;26.30;51.72;96458.95;607312;233;65192;-72
2022/11/22 05:18:34;;;;;;;;;;;;;;;26.30;52.00;96461.64;607260;233;63071;-71
2022/11/22 05:21:06;;;;;;;;;;;;;;;26.30;51.74;96461.64;607264;233;64918;-71
2022/11/22 05:26:20;;;;;;;;;;;;;;;26.29;50.54;96451.17;607372;233;65144;-72
2022/11/22 05:28:48;;;;;;;;;;;;;;;26.28;51.64;96445.00;607352;233;66978;-72
2022/11/22 05:31:16;;;;;;;;;;;;;;;26.27;50.81;96451.50;607269;233;67143;-72
2022/11/22 05:33:45;;;;;;;;;;;;;;;26.27;50.00;96446.12;610097;232;65268;-72
2022/11/22 05:36:12;;;;;;;;;;;;;;;26.28;52.44;96447.69;611701;232;66791;-72
2022/11/22 05:38:40;;;;;;;;;;;;;;;26.28;51.97;96445.00;611711;232;64964;-72
2022/11/22 05:41:09;;;;;;;;;;;;;;;26.28;51.76;96441.52;611769;232;65025;-72
2022/11/22 05:43:37;;;;;;;;;;;;;;;26.27;50.60;96439.91;611739;232;66951;-72
2022/11/22 05:46:08;;;;;;;;;;;;;;;26.29;51.30;96441.18;611686;232;67175;-72
2022/11/22 05:48:36;;;;;;;;;;;;;;;26.28;51.55;96439.61;611615;232;63060;-72
2022/11/22 05:51:08;;;;;;;;;;;;;;;26.29;50.80;96443.88;611685;232;64727;-72
2022/11/22 05:53:36;;;;;;;;;;;;;;;26.30;50.69;96441.97;611676;232;66969;-72
2022/11/22 05:56:07;;;;;;;;;;;;;;;26.30;53.48;96445.48;611691;232;65025;-70
2022/11/22 05:58:35;;;;;;;;;;;;;;;26.29;53.34;96449.27;611703;232;65457;-71
2022/11/22 06:01:05;;;;;;;;;;;;;;;26.30;50.48;96460.83;611658;232;66911;-71
2022/11/22 06:03:33;;;;;;;;;;;;;;;26.31;53.33;96459.73;611293;232;65093;-71
2022/11/22 06:06:00;;;;;;;;;;;;;;;26.29;51.78;96468.12;611762;232;67241;-71
2022/11/22 06:08:29;;;;;;;;;;;;;;;26.32;52.33;96475.56;611693;232;66929;-71
2022/11/22 06:11:01;;;;;;;;;;;;;;;26.31;50.31;96479.37;611692;232;65118;-71
2022/11/22 06:13:27;;;;;;;;;;;;;;;26.32;51.74;96480.95;611539;232;67252;-71
2022/11/22 06:15:56;;;;;;;;;;;;;;;26.32;49.16;96480.95;611689;232;67220;-71
2022/11/22 06:18:23;;;;;;;;;;;;;;;26.35;52.08;96492.98;611667;232;65027;-63
2022/11/22 06:20:51;;;;;;;;;;;;;;;26.37;53.05;96487.30;611646;232;67124;-63
2022/11/22 06:23:18;;;;;;;;;;;;;;;26.37;51.06;96503.46;611694;232;67065;-63
2022/11/22 06:25:46;;;;;;;;;;;;;;;26.39;53.94;96501.25;611698;232;63026;-63
2022/11/22 06:28:13;;;;;;;;;;;;;;;26.39;52.37;96509.33;611625;232;64911;-63
2022/11/22 06:30:41;;;;;;;;;;;;;;;26.40;51.57;96500.13;611732;232;65054;-63
2022/11/22 06:33:10;;;;;;;;;;;;;;;26.40;51.77;96502.82;610670;232;46388;-63
2022/11/22 06:35:38;;;;;;;;;;;;;;;26.42;51.12;96495.22;609182;233;67230;-63
2022/11/22 06:38:05;;;;;;;;;;;;;;;26.42;50.74;96509.48;609197;233;64179;-63
2022/11/22 06:40:32;;;;;;;;;;;;;;;26.44;51.80;96506.48;609172;233;63140;-64
2022/11/22 06:43:00;;;;;;;;;;;;;;;26.45;52.66;96505.35;609174;233;64726;-63
2022/11/22 06:45:27;;;;;;;;;;;;;;;26.45;53.08;96500.75;609215;233;65040;-63
2022/11/22 06:47:56;;;;;;;;;;;;;;;26.45;51.99;96506.14;609178;233;62952;-63
2022/11/22 06:50:24;;;;;;;;;;;;;;;26.44;49.64;96499.18;609155;233;66993;-63
2022/11/22 06:52:52;;;;;;;;;;;;;;;26.46;51.14;96496.15;609118;233;64402;-63
2022/11/22 06:55:20;;;;;;;;;;;;;;;26.47;51.06;96495.05;609153;233;63037;-64
2022/11/22 06:57:53;;;;;;;;;;;;;;;26.48;53.31;96502.02;609230;233;66902;-63
2022/11/22 07:00:20;;;;;;;;;;;;;;;26.47;52.37;96503.92;609177;233;66941;-63
2022/11/22 07:02:48;;;;;;;;;;;;;;;26.47;50.29;96503.92;609195;233;65074;-63
2022/11/22 07:05:16;;;;;;;;;;;;;;;26.48;51.64;96494.72;609176;233;66676;-63
2022/11/22 07:07:43;;;;;;;;;;;;;;;26.47;50.78;96501.23;609127;233;66839;-63
2022/11/22 07:10:12;;;;;;;;;;;;;;;26.49;51.23;96495.51;609042;233;65057;-62
2022/11/22 07:12:40;;;;;;;;;;;;;;;26.52;51.55;96501.10;609144;233;67216;-64
2022/11/22 07:15:07;;;;;;;;;;;;;;;26.50;51.78;96497.90;609193;233;64684;-64
2022/11/22 07:17:35;;;;;;;;;;;;;;;26.51;52.83;96493.32;609130;233;63092;-64
2022/11/22 07:20:03;;;;;;;;;;;;;;;26.51;51.25;96493.32;608384;233;64663;-65
2022/11/22 07:22:31;;;;;;;;;;;;;;;26.51;50.04;96498.71;608993;233;66865;-65
2022/11/22 07:24:59;;;;;;;;;;;;;;;26.51;49.90;96496.80;611414;232;65031;-64
2022/11/22 07:27:26;;;;;;;;;;;;;;;26.53;49.96;96493.80;604107;232;66934;-64
2022/11/22 07:29:54;;;;;;;;;;;;;;;26.53;52.72;96488.41;602103;235;65297;-64
2022/11/22 07:32:21;;;;;;;;;;;;;;;26.53;51.51;96485.72;602699;232;63092;-65
2022/11/22 07:34:49;;;;;;;;;;;;;;;26.53;50.58;96480.33;609261;233;64711;-64
2022/11/22 07:37:16;;;;;;;;;;;;;;;26.52;49.38;96468.77;609368;233;64749;-64
2022/11/22 07:39:44;;;;;;;;;;;;;;;26.53;51.09;96459.56;609294;233;62876;-64
2022/11/22 07:42:12;;;;;;;;;;;;;;;26.55;51.11;96464.64;615499;230;66874;-64
2022/11/22 07:44:39;;;;;;;;;;;;;;;26.55;51.29;96459.25;616937;230;63438;-64
2022/11/22 07:47:06;;;;;;;;;;;;;;;26.55;51.59;96451.17;616970;229;63011;-64
2022/11/22 07:49:34;;;;;;;;;;;;;;;26.55;52.40;96451.17;617009;230;64770;-64
2022/11/22 07:52:02;;;;;;;;;;;;;;;26.55;51.60;96443.88;616989;230;66517;-63
2022/11/22 07:54:30;;;;;;;;;;;;;;;26.56;52.80;96447.34;616912;230;65028;-64
2022/11/22 07:56:57;;;;;;;;;;;;;;;26.55;50.77;96454.65;617016;230;66931;-64
2022/11/22 07:59:25;;;;;;;;;;;;;;;26.56;52.11;96447.34;616918;230;67076;-65
2022/11/22 08:01:52;;;;;;;;;;;;;;;26.56;50.86;96458.91;616935;230;63012;-65
2022/11/22 08:04:20;;;;;;;;;;;;;;;26.58;51.21;96445.13;616963;230;64696;-67
2022/11/22 08:06:47;;;;;;;;;;;;;;;26.58;53.27;96455.91;616943;230;64724;-64
2022/11/22 08:09:15;;;;;;;;;;;;;;;26.58;54.17;96450.52;616922;230;62977;-66
2022/11/22 08:11:44;;;;;;;;;;;;;;;26.59;50.93;96449.41;616986;230;65708;-65
2022/11/22 08:14:11;;;;;;;;;;;;;;;26.60;50.75;96442.09;617013;230;66828;-63
2022/11/22 08:16:39;;;;;;;;;;;;;;;26.60;54.27;96437.53;617003;230;65018;-63
2022/11/22 08:19:06;;;;;;;;;;;;;;;26.61;53.07;96435.62;616987;230;66722;-64
2022/11/22 08:21:36;;;;;;;;;;;;;;;26.62;52.12;96443.36;617031;230;66973;-64
2022/11/22 08:24:03;;;;;;;;;;;;;;;26.63;52.09;96444.97;616958;230;65097;-63
2022/11/22 08:26:31;;;;;;;;;;;;;;;26.62;48.73;96440.67;616952;230;67343;-63
2022/11/22 08:28:59;;;;;;;;;;;;;;;26.64;50.84;96449.23;617061;230;66837;-63
2022/11/22 08:31:27;;;;;;;;;;;;;;;26.64;51.78;96438.45;616952;230;65088;-63
2022/11/22 08:33:54;;;;;;;;;;;;;;;26.65;53.68;96433.84;615582;230;64450;-64
2022/11/22 08:36:22;;;;;;;;;;;;;;;26.65;52.29;96429.24;614991;230;65432;-65
2022/11/22 08:38:49;;;;;;;;;;;;;;;26.64;48.64;96438.45;615012;230;65005;-63
2022/11/22 08:41:17;;;;;;;;;;;;;;;26.66;52.19;96433.53;615120;230;64494;-62
2022/11/22 08:43:44;;;;;;;;;;;;;;;26.67;51.41;96421.63;614985;230;64805;-62
2022/11/22 08:46:12;;;;;;;;;;;;;;;26.67;53.74;96421.63;615032;230;62984;-65
2022/11/22 08:48:39;;;;;;;;;;;;;;;26.68;52.40;96417.84;615017;230;65253;-64
2022/11/22 08:51:08;;;;;;;;;;;;;;;26.68;52.34;96412.45;614980;230;66629;-63
2022/11/22 08:53:37;;;;;;;;;;;;;;;26.68;52.45;96407.06;615036;230;63078;-63
2022/11/22 08:56:05;;;;;;;;;;;;;;;26.70;54.09;96398.64;615037;230;66938;-66
2022/11/22 08:58:33;;;;;;;;;;;;;;;26.70;53.01;96387.86;614943;230;66832;-65
2022/11/22 09:01:08;;;;;;;;;;;;;;;26.71;52.60;96384.03;615041;230;62953;-63
2022/11/22 09:03:36;;;;;;;;;;;;;;;26.70;52.27;96388.64;615010;230;66931;-65
2022/11/22 09:06:04;;;;;;;;;;;;;;;26.70;51.31;96377.86;615006;230;66430;-65
2022/11/22 09:08:32;;;;;;;;;;;;;;;26.70;52.70;96377.86;615009;230;65052;-63
2022/11/22 09:11:00;;;;;;;;;;;;;;;26.70;51.84;96375.16;615055;229;66976;-66
2022/11/22 09:13:29;;;;;;;;;;;;;;;26.71;52.73;96376.77;614954;230;67163;-63
2022/11/22 09:15:58;;;;;;;;;;;;;;;26.71;51.72;96362.47;615053;230;65013;-62
2022/11/22 09:18:26;;;;;;;;;;;;;;;26.71;54.27;96357.90;614930;230;67326;-63
2022/11/22 09:20:57;;;;;;;;;;;;;;;26.73;52.86;96360.25;615011;230;64817;-64
2022/11/22 09:23:25;;;;;;;;;;;;;;;26.72;52.69;96354.08;614993;230;65104;-64
2022/11/22 09:26:09;;;;;;;;;;;;;;;26.72;50.99;96348.69;615044;230;66964;-64
2022/11/22 09:28:37;;;;;;;;;;;;;;;26.73;54.47;96349.47;610580;230;64423;-64
2022/11/22 09:31:06;;;;;;;;;;;;;;;26.74;51.79;96348.38;602372;235;62915;-64
2022/11/22 09:33:35;;;;;;;;;;;;;;;26.73;53.59;96344.86;599012;235;63967;-63
2022/11/22 09:36:04;;;;;;;;;;;;;;;26.73;53.18;96342.17;610120;232;64324;-63
2022/11/22 09:38:32;;;;;;;;;;;;;;;26.71;51.59;96336.34;607540;233;67479;-63
2022/11/22 09:41:01;;;;;;;;;;;;;;;26.73;53.44;96328.69;607584;233;64670;-65
2022/11/22 09:43:35;;;;;;;;;;;;;;;26.73;51.99;96330.61;607617;233;64374;-64
2022/11/22 09:46:19;;;;;;;;;;;;;;;26.72;52.90;96327.13;607585;232;65166;-64
2022/11/22 09:48:51;;;;;;;;;;;;;;;26.72;52.76;96316.34;607541;232;66649;-60
2022/11/22 09:51:20;;;;;;;;;;;;;;;26.72;51.19;96302.87;607635;233;66701;-65
2022/11/22 09:53:49;;;;;;;;;;;;;;;26.72;51.96;96294.78;607591;233;65045;-67
2022/11/22 09:56:17;;;;;;;;;;;;;;;26.72;51.73;96299.39;607477;232;66978;-64
2022/11/22 09:58:50;;;;;;;;;;;;;;;26.72;50.39;96299.39;607573;233;66737;-65
2022/11/22 10:01:20;;;;;;;;;;;;;;;26.70;52.89;96297.00;607586;233;65126;-64
2022/11/22 10:03:48;;;;;;;;;;;;;;;26.70;53.69;96299.70;607515;233;66890;-64
2022/11/22 10:06:20;;;;;;;;;;;;;;;26.70;53.67;96305.09;607611;233;65292;-65
2022/11/22 10:09:06;;;;;;;;;;;;;;;26.70;53.06;96297.00;607535;233;62932;-65
2022/11/22 10:11:41;;;;;;;;;;;;;;;26.71;52.00;96301.30;607583;233;64707;-65
2022/11/22 10:14:16;;;;;;;;;;;;;;;26.71;53.23;96292.39;607572;232;66943;-66
2022/11/22 10:16:45;;;;;;;;;;;;;;;26.71;55.02;96285.12;607514;233;63822;-64
2022/11/22 10:19:17;;;;;;;;;;;;;;;26.71;53.30;96293.21;607481;232;67023;-63
2022/11/22 10:21:50;;;;;;;;;;;;;;;26.71;52.55;96282.43;607665;233;66474;-66
2022/11/22 10:24:15;;;;;;;;;;;;;;;26.71;52.75;96279.73;607415;233;66879;-66
2022/11/22 10:26:43;;;;;;;;;;;;;;;26.70;51.97;96278.14;607591;233;64735;-66
2022/11/22 10:29:22;;;;;;;;;;;;;;;26.71;53.53;96279.73;607553;233;65065;-64
2022/11/22 10:32:00;;;;;;;;;;;;;;;26.71;52.41;96271.65;607455;232;65150;-64
2022/11/22 10:34:41;;;;;;;;;;;;;;;26.72;53.43;96267.04;609871;232;66943;-65
2022/11/22 10:37:22;;;;;;;;;;;;;;;26.72;55.55;96267.83;610065;232;64695;-64
2022/11/22 10:39:54;;;;;;;;;;;;;;;26.72;53.98;96267.04;610056;232;65290;-63
2022/11/22 10:42:23;;;;;;;;;;;;;;;26.71;54.12;96263.56;609995;232;66943;-63
2022/11/22 10:44:52;;;;;;;;;;;;;;;26.73;54.22;96264.00;609913;232;66890;-66
2022/11/22 10:47:39;;;;;;;;;;;;;;;26.75;52.23;96261.78;610042;232;62890;-64
2022/11/22 10:50:27;;;;;;;;;;;;;;;26.76;53.65;96252.59;610030;232;66897;-63
2022/11/22 10:53:12;;;;;;;;;;;;;;;26.75;50.56;96250.21;609895;232;65670;-64
2022/11/22 10:55:50;;;;;;;;;;;;;;;26.74;52.06;96248.64;610012;232;63133;-64
2022/11/22 10:58:22;;;;;;;;;;;;;;;26.74;53.91;96235.17;610003;232;65327;-64
2022/11/22 11:00:51;;;;;;;;;;;;;;;26.74;53.52;96233.25;609984;232;65035;-63
2022/11/22 11:03:21;;;;;;;;;;;;;;;26.74;52.16;96235.17;609969;232;65291;-64
2022/11/22 11:05:52;;;;;;;;;;;;;;;26.75;53.15;96229.44;610017;232;65017;-64
2022/11/22 11:08:21;;;;;;;;;;;;;;;26.76;51.99;96231.03;609929;232;64964;-64
2022/11/22 11:10:49;;;;;;;;;;;;;;;26.79;49.82;96224.17;610011;232;62892;-64
2022/11/22 11:13:25;;;;;;;;;;;;;;;26.79;53.33;96229.56;610059;232;65100;-63
2022/11/22 11:15:54;;;;;;;;;;;;;;;26.77;53.16;96227.20;610015;232;67233;-64
2022/11/22 11:18:32;;;;;;;;;;;;;;;26.80;52.17;96231.16;612788;230;65027;-64
2022/11/22 11:20:59;;;;;;;;;;;;;;;26.84;51.35;96228.59;614923;230;67189;-63
2022/11/22 11:23:27;;;;;;;;;;;;;;;26.87;51.57;96233.32;615141;230;67011;-63
2022/11/22 11:25:54;;;;;;;;;;;;;;;26.87;52.58;96227.92;615146;230;65080;-63
2022/11/22 11:28:23;;;;;;;;;;;;;;;26.90;48.01;96227.27;615082;230;67064;-64
2022/11/22 11:31:10;;;;;;;;;;;;;;;26.96;47.04;96223.28;615141;230;67186;-64
2022/11/22 11:33:38;;;;;;;;;;;;;;;26.99;47.52;96215.31;614371;230;65045;-63
2022/11/22 11:36:07;;;;;;;;;;;;;;;27.03;48.40;96220.05;613812;231;67273;-64
2022/11/22 11:38:39;;;;;;;;;;;;;;;27.04;51.03;96203.55;613811;231;66835;-63
2022/11/22 11:41:19;;;;;;;;;;;;;;;27.04;51.15;96206.24;613499;230;62867;-65
2022/11/22 11:43:47;;;;;;;;;;;;;;;27.06;48.83;96212.08;613900;231;67363;-65
2022/11/22 11:46:16;;;;;;;;;;;;;;;27.09;50.58;96219.53;613824;230;67547;-70
2022/11/22 11:48:44;;;;;;;;;;;;;;;27.10;50.44;96212.22;613740;231;62935;-70
2022/11/22 11:51:13;;;;;;;;;;;;;;;27.11;50.83;96198.39;613801;231;65080;-69
2022/11/22 11:53:42;;;;;;;;;;;;;;;27.12;50.68;96197.30;613912;231;66949;-69
2022/11/22 11:56:30;;;;;;;;;;;;;;;27.14;51.37;96188.86;613801;231;65087;-69
2022/11/22 11:58:58;;;;;;;;;;;;;;;27.14;52.87;96186.16;613878;231;67310;-69
2022/11/22 12:01:26;;;;;;;;;;;;;;;27.13;53.88;96179.98;613819;231;67025;-71
2022/11/22 12:03:58;;;;;;;;;;;;;;;27.14;52.93;96170.76;613818;231;65032;-70
2022/11/22 12:06:30;;;;;;;;;;;;;;;27.12;51.86;96175.72;613813;231;66858;-72
2022/11/22 12:08:58;;;;;;;;;;;;;;;27.13;53.04;96177.28;613892;231;64950;-71
2022/11/22 12:11:27;;;;;;;;;;;;;;;27.16;51.69;96181.23;613722;231;63185;-70
2022/11/22 12:13:56;;;;;;;;;;;;;;;27.15;52.80;96193.15;612204;231;65149;-71
2022/11/22 12:16:25;;;;;;;;;;;;;;;27.14;53.48;96192.33;613795;231;67013;-70
2022/11/22 12:19:00;;;;;;;;;;;;;;;27.14;52.52;96200.42;613752;231;65125;-71
2022/11/22 12:21:32;;;;;;;;;;;;;;;27.18;52.92;96203.30;613742;230;67169;-71
2022/11/22 12:24:04;;;;;;;;;;;;;;;27.18;52.64;96195.20;613749;231;67010;-71
2022/11/22 12:26:31;;;;;;;;;;;;;;;27.19;52.31;96196.78;613389;230;65201;-70
2022/11/22 12:28:59;;;;;;;;;;;;;;;27.16;52.39;96198.22;611994;231;67339;-71
2022/11/22 12:31:31;;;;;;;;;;;;;;;27.15;53.94;96190.45;607095;233;67103;-70
2022/11/22 12:34:00;;;;;;;;;;;;;;;27.19;52.60;96200.25;607905;233;65022;-70
2022/11/22 12:36:29;;;;;;;;;;;;;;;27.20;49.82;96191.06;607174;233;67223;-71
2022/11/22 12:38:58;;;;;;;;;;;;;;;27.24;50.67;96201.97;607849;232;67234;-71
2022/11/22 12:41:27;;;;;;;;;;;;;;;27.23;53.14;96200.41;608118;233;65764;-71
2022/11/22 12:43:56;;;;;;;;;;;;;;;27.23;53.04;96193.09;607242;232;64958;-69
2022/11/22 12:46:25;;;;;;;;;;;;;;;27.27;48.77;96195.13;607425;232;67040;-68
2022/11/22 12:48:54;;;;;;;;;;;;;;;27.26;51.91;96198.95;609784;232;65217;-71
2022/11/22 12:51:29;;;;;;;;;;;;;;;27.23;51.87;96205.80;606914;232;65097;-71
2022/11/22 12:53:58;;;;;;;;;;;;;;;27.25;52.13;96197.36;604569;233;64718;-72
2022/11/22 12:56:30;;;;;;;;;;;;;;;27.27;51.09;96187.81;607113;233;62937;-71
2022/11/22 12:59:02;;;;;;;;;;;;;;;27.26;52.85;96182.77;607195;233;67208;-72
2022/11/22 13:01:31;;;;;;;;;;;;;;;27.30;52.44;96180.97;607024;233;67344;-71
2022/11/22 13:04:10;;;;;;;;;;;;;;;27.28;51.83;96175.89;607186;232;65035;-70
2022/11/22 13:06:39;;;;;;;;;;;;;;;27.25;51.22;96176.56;607278;233;67163;-72
2022/11/22 13:09:08;;;;;;;;;;;;;;;27.24;52.79;96172.30;606828;233;65034;-65
2022/11/22 13:11:40;;;;;;;;;;;;;;;27.26;51.08;96164.67;607147;233;64904;-64